Accueil
METAR-TAF:

METAR-TAF

Aéroports :

Bearce Airport

Mount Ida, Arkansas, États-Unis

latitude: 34-33N, longitude: 093-35W, altitude: 214 m

Observation

Le bulletin a été fait il y a 59 minutes, à 14:53 UTC
Vent calme
Température 2°C
Humidité 69%
Pression 1032 hPa
Ciel clair

METAR: KMWT 191453Z AUTO 00000KT CLR 02/M03 A3048 RMK AO2 SLP333 T00171033 53014 $

Heure: 09:52 (15:52 UTC)


TAF: absent

Observations et prévisions météorologiques de plus de 4000 aéroports (messages METAR et TAF).

Les stations disponibles sont représentées par des disques jaunes et rouges sur la carte.

Passer la souris dessus pour voir le nom de la station.

Cliquer dessus pour voir les observations et prévisions météorologiques.

Pour changer de carte: cliquez sur les boutons verts avec une croix noire pour zoomer, sur le bouton vert avec un tiret pour effectuer un zoom arrière, ou sur les flèches vertes pour les cartes adjacentes.


METAR-TAF: